Mar Maria — 9HA2859 — position and weather

sailwx.info

Track history (hours):
 
Tides and Currents Weather Stations Pressure Air Temp Water Temp Dewpoint Dewpoint Depression Visibility Wind Speed Wind Dir Waves Ship Positions

Mar Maria

Last reported at 2015-Apr-20 21:33 UTC. Time now 2015-Apr-21 21:09 UTC.
Position N 31°22' E 032°20'.

Length 103 m; draft 6.5 m.

Type: Ship (hazmat cat B). MMSI: 256435000.

Date/timePositionNaut miles runAvg speedWind from/ knotsBaromVisibWave heightAir tempDewpointWater temp
2015-Apr-20 21:33N 31°22' E 032°20'0 0.0
2015-Apr-20 20:24N 31°22' E 032°20'0 0.0
2015-Apr-20 19:33N 31°22' E 032°20'0 0.0
2015-Apr-20 18:33N 31°22' E 032°20'0 0.0
2015-Apr-20 17:33N 31°22' E 032°20'7 0.2
2015-Apr-19 12:15N 31°15' E 032°18'0 0.0
2015-Apr-19 10:24N 31°15' E 032°18'0 0.1
2015-Apr-19 09:31N 31°15' E 032°18'  
2015-Apr-13 04:22N 36°34' E 014°56'1111.3
2015-Apr-13 03:23N 36°36' E 014°43'911.3
2015-Apr-13 02:33N 36°38' E 014°31'1211.5
2015-Apr-13 01:33N 36°40' E 014°17'1111.3
2015-Apr-13 00:33N 36°42' E 014°03'1211.4
2015-Apr-12 23:33N 36°44' E 013°49'1611.6
2015-Apr-12 22:08N 36°47' E 013°29'711.5
2015-Apr-12 21:31N 36°48' E 013°20'1111.7
2015-Apr-12 20:33N 36°50' E 013°06'27811.0
2015-Apr-11 19:17N 37°21' E 007°21'1411.6
2015-Apr-11 18:05N 37°22' E 007°03'711.0
2015-Apr-11 17:29N 37°23' E 006°55'1010.9
2015-Apr-11 16:31N 37°24' E 006°42'  
Track history (hours):
 
Tides and Currents Weather Stations Pressure Air Temp Water Temp Dewpoint Dewpoint Depression Visibility Wind Speed Wind Dir Waves Ship Positions

Mar Maria

Last reported at 2015-Apr-20 21:33 UTC. Time now 2015-Apr-21 21:09 UTC.
Position N 31°22' E 032°20'.

Length 103 m; draft 6.5 m.

Type: Ship (hazmat cat B). MMSI: 256435000.

Date/timePositionNaut miles runAvg speedWind from/ knotsBaromVisibWave heightAir tempDewpointWater temp
2015-Apr-20 21:33N 31°22' E 032°20'0 0.0
2015-Apr-20 20:24N 31°22' E 032°20'0 0.0
2015-Apr-20 19:33N 31°22' E 032°20'0 0.0
2015-Apr-20 18:33N 31°22' E 032°20'0 0.0
2015-Apr-20 17:33N 31°22' E 032°20'7 0.2
2015-Apr-19 12:15N 31°15' E 032°18'0 0.0
2015-Apr-19 10:24N 31°15' E 032°18'0 0.1
2015-Apr-19 09:31N 31°15' E 032°18'  
2015-Apr-13 04:22N 36°34' E 014°56'1111.3
2015-Apr-13 03:23N 36°36' E 014°43'911.3
2015-Apr-13 02:33N 36°38' E 014°31'1211.5
2015-Apr-13 01:33N 36°40' E 014°17'1111.3
2015-Apr-13 00:33N 36°42' E 014°03'1211.4
2015-Apr-12 23:33N 36°44' E 013°49'1611.6
2015-Apr-12 22:08N 36°47' E 013°29'711.5
2015-Apr-12 21:31N 36°48' E 013°20'1111.7
2015-Apr-12 20:33N 36°50' E 013°06'27811.0
2015-Apr-11 19:17N 37°21' E 007°21'1411.6
2015-Apr-11 18:05N 37°22' E 007°03'711.0
2015-Apr-11 17:29N 37°23' E 006°55'1010.9
2015-Apr-11 16:31N 37°24' E 006°42'  

Dump ship's entire track history